CDT,Max TemperatureF,Mean TemperatureF,Min TemperatureF,Max Dew PointF,MeanDew PointF,Min DewpointF,Max Humidity, Mean Humidity, Min Humidity, Max Sea Level PressureIn, Mean Sea Level PressureIn, Min Sea Level PressureIn, Max VisibilityMiles, Mean VisibilityMiles, Min VisibilityMiles, Max Wind SpeedMPH, Mean Wind SpeedMPH, Max Gust SpeedMPH,PrecipitationIn, CloudCover, Events, WindDirDegrees
2013-9-1,86,80,73,71,69,64,93,73,57,29.94,29.84,29.76,10,10,8,10,3,23,0.00,1,Thunderstorm,35
2013-9-2,87,74,61,62,61,58,90,65,41,30.04,29.99,29.94,10,10,10,8,4,16,0.00,0,,15
2013-9-3,89,74,59,63,59,56,93,67,34,30.09,30.04,30.00,10,10,9,6,1,,0.00,0,,80
2013-9-4,91,74,59,66,61,57,93,68,38,30.15,30.09,30.05,10,10,10,4,0,,0.00,0,,140
2013-9-5,91,76,62,68,62,59,90,65,36,30.19,30.13,30.09,10,10,10,5,1,,0.00,0,,171
2013-9-6,91,78,64,68,63,61,87,62,39,30.13,30.06,29.99,10,10,10,8,3,,0.00,0,,178
2013-9-7,97,81,66,71,65,62,87,62,37,30.02,29.97,29.90,10,10,10,9,3,,0.00,0,,186
2013-9-8,98,84,69,70,66,63,87,63,34,29.94,29.90,29.85,10,10,8,10,3,20,0.00,0,,193
2013-9-9,96,82,68,67,64,61,87,61,31,29.97,29.93,29.89,10,10,9,13,3,23,0.00,0,,191
2013-9-10,93,81,69,65,63,62,81,58,37,30.09,30.03,29.96,10,10,10,14,4,21,0.00,0,,181
2013-9-11,93,78,64,68,64,61,90,68,34,30.14,30.09,30.03,10,10,7,9,2,,0.00,0,,212
2013-9-12,86,76,69,70,67,65,87,74,55,30.12,30.08,30.05,10,10,8,9,2,,0.00,1,,15
2013-9-13,82,72,62,65,51,47,78,51,29,30.14,30.08,30.03,10,10,10,9,4,,0.00,0,,45
2013-9-14,82,68,55,57,53,49,84,61,39,30.09,30.03,29.96,10,10,10,8,2,,0.00,0,,140
2013-9-15,91,78,66,66,58,51,76,55,38,30.06,29.99,29.96,10,10,10,13,4,22,0.00,1,,183
2013-9-16,75,70,66,70,67,64,96,90,81,30.22,30.16,30.06,10,5,1,8,4,,1.33,8,Rain-Thunderstorm,62
2013-9-17,75,70,66,68,66,64,94,89,76,30.17,30.08,29.98,10,7,2,7,3,,0.13,4,Rain-Thunderstorm,133
2013-9-18,91,80,70,70,68,66,87,70,50,29.98,29.92,29.86,10,10,9,13,6,22,0.00,0,Rain,177
2013-9-19,91,80,68,70,67,64,88,75,47,29.95,29.90,29.81,10,9,1,17,8,29,0.36,3,Rain-Thunderstorm,197
2013-9-20,72,62,53,66,58,50,94,81,49,30.05,30.00,29.92,10,10,5,12,3,21,0.17,3,Rain,2
2013-9-21,79,63,48,59,51,46,93,72,39,30.06,29.99,29.94,10,10,9,6,1,,0.00,0,,44
2013-9-22,78,62,48,53,50,46,93,68,33,30.00,29.93,29.86,10,10,10,8,2,,0.00,0,,147
2013-9-23,79,68,57,58,53,51,81,63,42,29.93,29.85,29.78,10,10,10,10,5,20,0.00,1,,151
2013-9-24,81,69,57,57,55,53,90,66,43,29.88,29.85,29.80,10,10,10,15,7,24,0.00,2,,269
2013-9-25,81,66,53,64,57,51,93,75,47,29.91,29.86,29.81,10,9,5,7,1,,0.00,0,,157
2013-9-26,88,75,62,61,59,57,84,61,37,29.90,29.85,29.81,10,10,10,12,6,20,0.00,0,,141
2013-9-27,88,76,66,62,59,57,76,56,36,29.96,29.90,29.84,10,10,10,15,7,25,0.00,0,,155
2013-9-28,75,63,51,67,57,48,100,86,62,30.11,30.00,29.81,10,6,0,8,2,,0.50,6,Fog-Rain-Thunderstorm,355
2013-9-29,75,60,46,59,50,45,97,85,41,30.13,30.07,29.96,10,4,0,4,0,,0.00,4,Fog,-1
2013-9-30,80,62,46,59,53,45,93,75,42,29.94,29.89,29.84,10,10,8,9,2,16,0.00,0,,168